• Join FlightAware (Why Join?)
  • Login
  • US Flag 
08:27AM EDT


 

Airport Tracker/Info


-or-


 

Live Flight TrackerFlight Track Log ✈ AWE2690 ✈ 10-Sep-2013 ✈ KIAD - KCLT

Flight Track Log - Related Links

Times and Time Zones

All times are in EDT time to prevent confusion due to time zone crossing. See the AWE2690 flight status page for this flight to view local times or setup timezone preferences in your user account.

Time Position Orientation Groundspeed Altitude Reporting Facility
EDT Latitude Longitude Course Direction KTS MPH feet Rate Location/Type
11:29AM 38.9333 -77.5333 233° Southwest 184 212 2,000  Level Potomac TRACON
11:30AM 38.9000 -77.6000 237° Southwest 258 297 3,400 1,500 Climbing Potomac TRACON
11:31AM 38.6975 -77.7078 185° South  Level Estimated
11:31AM 38.8333 -77.6333 201° Southwest 291 335 5,100  Level Potomac TRACON
11:32AM 38.6141 -77.7901 224° Southwest  Level Estimated
11:32AM 38.7500 -77.6167 171° South 287 330 7,900  Level Potomac TRACON
11:33AM 38.5306 -77.8721 226° Southwest  Level Estimated
11:33AM 38.6667 -77.6000 171° South 297 342 10,600  Level Potomac TRACON
11:34AM 38.4470 -77.9540 233° Southwest  Level Estimated
11:34AM 38.5833 -77.5833 171° South 327 376 12,500  Level Potomac TRACON
11:35AM 38.4883 -77.5811 179° South 341 392 14,300 2,100 Climbing Washington Center
11:36AM 38.3922 -77.5864 182° South 352 405 16,700 1,980 Climbing Washington Center
11:37AM 38.3219 -77.6797 226° Southwest 327 376 18,300 1,620 Climbing Washington Center
11:38AM 38.2556 -77.7836 231° Southwest 349 402 19,900 1,620 Climbing Washington Center
11:39AM 38.1847 -77.8900 230° Southwest 376 433 21,600 1,560 Climbing Washington Center
11:40AM 38.1158 -77.9961 230° Southwest 397 457 23,100 1,440 Climbing Washington Center
11:41AM 38.0447 -78.1072 231° Southwest 408 470 24,600 1,380 Climbing Washington Center
11:42AM 37.9758 -78.2128 230° Southwest 408 470 26,000 1,200 Climbing Washington Center
11:43AM 37.8981 -78.3261 229° Southwest 413 475 27,000 900 Climbing Washington Center
11:44AM 37.8183 -78.4389 228° Southwest 425 489 27,800 480 Climbing Washington Center
11:45AM 37.7342 -78.5592 229° Southwest 441 507 28,000 60 Climbing Washington Center
11:46AM 37.6628 -78.6611 229° Southwest 441 507 28,000  Level Washington Center
11:47AM 37.5825 -78.7733 228° Southwest 441 507 28,000  Level Washington Center
11:48AM 37.5022 -78.8878 229° Southwest 441 507 28,000  Level Washington Center
11:49AM 37.4219 -78.9992 228° Southwest 441 507 28,000  Level Washington Center
11:50AM 37.3394 -79.1131 228° Southwest 441 507 28,000  Level Washington Center
11:51AM 37.2481 -79.2369 227° Southwest 447 514 28,000  Level Washington Center
11:52AM 37.1475 -79.3233 214° Southwest 442 509 28,000  Level Washington Center
11:53AM 37.0467 -79.4067 213° Southwest 442 509 28,000  Level Washington Center
11:54AM 36.9458 -79.4903 214° Southwest 442 509 28,000  Level Washington Center
11:55AM 36.8431 -79.5758 214° Southwest 442 509 28,000  Level Washington Center
11:56AM 36.7464 -79.6539 213° Southwest 448 516 28,000 -240 Level Washington Center
11:57AM 36.6392 -79.7414 213° Southwest 459 528 27,600 -720 Descending Washington Center
11:58AM 36.5361 -79.8264 214° Southwest 464 534 26,600 -840 Descending Washington Center
11:59AM 36.4003 -79.9297 211° Southwest 447 514 25,800 -1,260 Descending Atlanta Center
12:00PM 36.3031 -80.0119 214° Southwest 437 503 23,900 -1,920 Descending Atlanta Center
12:01PM 36.2117 -80.0886 214° Southwest 419 482 22,000 -1,920 Descending Atlanta Center
12:02PM 36.1325 -80.1567 215° Southwest 400 460 20,100 -1,920 Descending Atlanta Center
12:03PM 36.0453 -80.2328 215° Southwest 394 453 18,200 -1,680 Descending Atlanta Center
12:04PM 35.9658 -80.3008 215° Southwest 382 440 16,800 -1,800 Descending Atlanta Center
12:05PM 35.9294 -80.3383 220° Southwest 344 396 15,800 -2,040 Descending Atlanta Center
12:05PM 35.8886 -80.3683 211° Southwest 356 410 14,800 -1,860 Descending Atlanta Center
12:05PM 35.8767 -80.3817 222° Southwest 326 375 14,500 -1,620 Descending Atlanta Center
12:06PM 35.8153 -80.4306 213° Southwest 332 382 13,200 -1,380 Descending Atlanta Center
12:06PM 35.8075 -80.4411 228° Southwest 311 358 13,100 -1,320 Descending Atlanta Center
12:07PM 35.7361 -80.5031 215° Southwest 301 346 11,800 -1,260 Descending Atlanta Center
12:08PM 35.6619 -80.5369 200° South 312 359 10,700 -1,380 Descending Atlanta Center
12:09PM 35.5897 -80.5581 193° South 285 328 9,200 -1,500 Descending Atlanta Center
12:09PM 35.5897 -80.5606 270° West 272 313 9,200 -1,320 Level Atlanta Center
12:10PM 35.5217 -80.5942 202° Southwest 269 310 7,900 -1,380 Descending Atlanta Center
12:10PM 35.5219 -80.5992 274° West 254 292 7,800 -1,620 Descending Atlanta Center
12:11PM 35.5319 -80.6600 281° West 201 231 6,300 -1,560 Descending Atlanta Center
12:11PM 35.5425 -80.6619 351° North 221 254 6,100 -300 Descending Atlanta Center
12:12PM 35.5867 -80.6806 341° North 135 155 6,000 -120 Descending Atlanta Center
12:12PM 35.5953 -80.6828 348° North 185 213 6,000  Level Atlanta Center
12:13PM 35.6353 -80.6992 342° North 183 211 6,000  Level Atlanta Center
12:13PM 35.6417 -80.7014 344° North 177 204 6,000  Level Atlanta Center
12:14PM 35.6614 -80.7442 300° West 177 204 6,000 -660 Level Atlanta Center
12:15PM 35.6511 -80.8211 261° West 190 219 4,700 -900 Descending Atlanta Center
12:16PM 35.6189 -80.8683 230° Southwest 179 206 4,000 -360 Descending Atlanta Center
12:18PM 35.5889 -80.9181 233° Southwest 179 206 4,000  Level Atlanta Center
12:19PM 35.5481 -80.9578 218° Southwest 180 207 4,000  Level Atlanta Center
12:20PM 35.4961 -80.9650 186° South 195 224 4,000  Level Atlanta Center
12:20PM 35.4458 -80.9592 175° South 195 224 4,000  Level Atlanta Center
12:22PM 35.3894 -80.9536 175° South 192 221 4,000 -600 Level Atlanta Center
12:22PM 35.3414 -80.9478 174° South 193 222 2,900 -1,020 Descending Atlanta Center
12:23PM 35.2933 -80.9444 177° South 174 200 2,100 -840 Descending Atlanta Center
12:24PM 35.2514 -80.9411 176° South 142 163 1,300 -840 Descending Atlanta Center
12:26PM 35.2137 -80.9491 177° South  Level Estimated
12:33PM 35.2137 -80.9491 177° South  Level Estimated